Jump to content

Avião de pequeno porte cai em São Manuel


Marcelo.st

Recommended Posts

Um avião de pequeno porte caiu entre São Manuel e Botucatu nessa quinta feira (23),segundo um morador do local foi por volta das 10 horas da manhã, ele ouviu o motor falhando e logo em seguida um estrondo, foi no bairro Monte Alegre.

A equipe da Radio Integração FM esteve no local que é de difícil acesso.

Um C-130 Hercules e o Helicóptero Águia sobrevoaram o local durante a tarde toda.

 

 

Link to comment
Share on other sites

Boa!

 

http://www.fab.mil.br/noticias/mostra/17643/RESGATE--%E2%80%93-FAB-busca-aeronave-desaparecida-no-interior-de-S%C3%A3o-Paulo

 

 

Achei estranho não ter visto nenhuma notícia relacionada em outros sites.

 

Tomara que não seja nada além de um susto.

Link to comment
Share on other sites

Segundo o RAB, se trata de uma aeronave experimental EXPLORER com capacidade para 4 pessoas.

 

O operador e proprietário é Marcelo Adriano Fernandes Guerra.

 

De Amarais pra Londrina dá em torno de 220NM. Se o último contato foi com o APP Academia, a área de busca pode se tornar bastante extensa.

 

 

Seguem os METARs de Campinas e Londrina em 1100Z e 1500Z. Ambos os locais se encontravam em condições visuais durante todo o período.

 

23/01/2014 SBKP 231100Z

METAR SBKP 231100Z 02007KT 9999 FEW010 24/21 Q1018=

 

23/01/2014 SBLO 231100Z

METAR SBLO 231100Z 01004KT 9999 FEW018 25/23 Q1017=

 

23/01/2014 SBKP 231200Z

METAR SBKP 231200Z 35008KT 9999 SCT019 25/20 Q1019=

 

23/01/2014 SBLO 231200Z

METAR SBLO 231200Z 06004KT 9999 FEW020 27/22 Q1017=

 

23/01/2014 SBKP 231300Z

METAR SBKP 231300Z 34007KT 9999 BKN020 27/21 Q1019=

 

23/01/2014 SBLO 231300Z

METAR SBLO 231300Z 07006KT 9999 FEW020 28/22 Q1018=

 

23/01/2014 SBKP 231400Z

METAR SBKP 231400Z 31007KT 9999 BKN025 27/20 Q1018=

 

23/01/2014 SBLO 231400Z

METAR SBLO 231400Z 03008KT 9999 FEW020 28/21 Q1018=

 

23/01/2014 SBKP 231500Z

METAR SBKP 231500Z 02008KT 9999 BKN030 28/20 Q1017=

 

23/01/2014 SBLO 231500Z

METAR SBLO 231500Z 07011KT 9999 SCT025 29/22 Q1017=

 

 

Link to comment
Share on other sites

Um deles era vereador e vice presidente da Câmara Municipal de Suzano e os outros dois eram empresários aqui em Mogi das Cruzes:

 

http://g1.globo.com/sp/mogi-das-cruzes-suzano/noticia/2014/01/enterro-de-vereador-de-suzano-morto-em-acidente-aereo-sera-12h.html

Link to comment
Share on other sites

Archived

This topic is now archived and is closed to further replies.

×
×
  • Create New...

Important Information

Saiba os termos, regras e políticas de privacidade